News.

Patrouille Sparflex - figure aérienne - Fly and Fun
Réserver un vol ?

Vous avez envie de vivre un moment unique ? Réserver un vol à sensation ou un vol d’initiation pour profiter d’un moment inoubliable a bord d’un L39 Albatros !

Patrouille Sparflex - figure aérienne - Fly and Fun
Nouveau site internet !

Bienvenue sur notre nouveau site internet !
Vous pouvez désormais commander votre vol à sensation ou d’initiation directement en ligne !

Social Wall.

Suivez-nous sur les réseaux sociaux comme Facebook et Instagram pour découvrir des actualités inédites !

Facebook.
Comments Box SVG iconsUsed for the like, share, comment, and reaction icons

Petite vidéo de fin d’année, avec un peu de soleil !!!☀️☀️👍 ... See MoreSee Less

Comment on Facebook

Magnifique ! Prête pour de nouvelles aventures en 2022 - n hésitez pas - c est fantastique

Vous en prendrez bien une petite tranche

Philippe s’est offert son cadeau de noël en avance !!!🎄👍. Quelle belle idée cadeau !😉 ... See MoreSee Less

Philippe s’est offert son cadeau de noël en avance !!!🎄👍. Quelle belle idée cadeau !😉Image attachment

Comment on Facebook

Trop bien comme cadeau de 🎄👍

METAR :
Deprecated: The each() function is deprecated. This message will be suppressed on further calls in /home/flyandfun/www/wp-content/plugins/metar/metar.php on line 45

LFQA 290600Z AUTO 24008KT 8000 OVC009 06/05 Q1032


vue en direct sur l'aérodrome
mentions légales politique de confidentialité
Cochet Concept
cx